メインページ
METAR-TAF:

METAR-TAF

空港 :

ノーマン・マンレー国際空港

キングストン, ジャマイカ

緯度: 17-56N, 経度: 076-47W, 海抜: 3m

現時点の気象観測

当レポートは30分前の03:00(UTC)に作成
東/南東の風 8kt
気温 28°C
湿度 70%
気圧 1014 hPa
視程10km以上
高度2000ftの雲はほとんどない

METAR: MKJP 160300Z 12008KT 9999 FEW020 28/22 Q1014

時間: 22:30 (03:30 UTC)

予報

当レポートは4時間15分前の23:15(UTC)に作成
予報は16日の 00時(UTC)から 16日の 24時(UTC)まで有効
の風 5kt
視程10km以上
高度2200ftの雲はほとんどない
16日の 12時(UTC)から 16日の 14時(UTC)まで徐々に
南東の風 15kt
高度2200ftの雲はほとんどない, 積乱雲.
確率 40% :
16日の 17時(UTC)から 16日の 21時(UTC)まで一時的に
視程: 7000m
高度2000ftの千切れ雲あり
にわか雨

TAF: MKJP 152315Z 1600/1624 36005KT 9999 FEW022 BECMG 1612/1614 14015KT FEW022CB PROB40 TEMPO 1617/1621 7000 SHRA BKN020

4,000以上の空港の気象観測と天気予報(METAR報とTAF報)

利用可能な観測所は地図上に黄色い丸と赤い丸で示す。

丸の上にカーソルを重ねると観測所名を参照できる。

次にクリックすると気象観測と天気予報を参照できる。

マップの切り替え:黒色「×」印の緑ボタンをクリックして拡大、「-」印の緑ボタンをクリックして縮小、緑色の三角印をクリックして隣りの地図に切り替え


METAR-TAF: